createdAt,value
2019-04-30T00:02:20.009Z,5.30
2019-04-30T00:04:50.449Z,6.03
2019-04-30T00:07:20.085Z,5.67
2019-04-30T00:09:53.990Z,6.43
2019-04-30T00:12:22.087Z,7.03
2019-04-30T00:14:52.041Z,5.83
2019-04-30T00:17:23.309Z,6.80
2019-04-30T00:19:55.861Z,6.30
2019-04-30T00:22:33.339Z,6.37
2019-04-30T00:24:55.777Z,6.73
2019-04-30T00:27:29.923Z,8.20
2019-04-30T00:30:00.353Z,7.50
2019-04-30T00:32:28.161Z,6.03
2019-04-30T00:34:57.982Z,5.93
2019-04-30T00:37:27.576Z,5.23
2019-04-30T00:39:57.199Z,5.77
2019-04-30T00:42:28.671Z,5.77
2019-04-30T00:44:59.550Z,6.73
2019-04-30T00:47:29.601Z,7.87
2019-04-30T00:50:00.355Z,8.20
2019-04-30T00:52:33.950Z,11.27
2019-04-30T00:55:05.559Z,10.87
2019-04-30T00:57:37.334Z,8.87
2019-04-30T01:00:07.287Z,8.37
2019-04-30T01:03:05.859Z,8.17
2019-04-30T01:05:35.346Z,8.77
2019-04-30T01:08:07.127Z,7.87
2019-04-30T01:10:37.179Z,8.27
2019-04-30T01:13:10.811Z,9.93
2019-04-30T01:15:39.052Z,9.90
2019-04-30T01:18:23.510Z,10.57
2019-04-30T01:20:52.948Z,11.10
2019-04-30T01:23:22.821Z,11.77
2019-04-30T01:25:52.707Z,9.73
2019-04-30T01:28:24.425Z,10.60
2019-04-30T01:30:58.774Z,10.00
2019-04-30T01:33:28.487Z,9.70
2019-04-30T01:35:57.094Z,10.80
2019-04-30T01:38:28.343Z,11.07
2019-04-30T01:40:59.597Z,12.47
2019-04-30T01:43:33.537Z,11.60
2019-04-30T01:46:08.100Z,10.33
2019-04-30T01:48:32.290Z,10.77
2019-04-30T01:51:01.945Z,10.73
2019-04-30T01:53:31.539Z,12.63
2019-04-30T01:56:19.276Z,11.47
2019-04-30T01:58:52.951Z,13.37
2019-04-30T02:01:24.165Z,13.43
2019-04-30T02:03:53.900Z,12.40
2019-04-30T02:06:23.514Z,14.33
2019-04-30T02:08:53.319Z,13.50
2019-04-30T02:11:23.258Z,14.17
2019-04-30T02:13:52.950Z,13.07
2019-04-30T02:16:22.569Z,14.60
2019-04-30T02:18:52.329Z,15.13
2019-04-30T02:21:21.980Z,13.17
2019-04-30T02:23:51.617Z,12.67
2019-04-30T02:26:21.280Z,13.80
2019-04-30T02:28:50.897Z,11.47
2019-04-30T02:31:22.871Z,11.30
2019-04-30T02:33:54.964Z,12.37
2019-04-30T02:36:40.445Z,11.37
2019-04-30T02:39:11.123Z,9.63
2019-04-30T02:41:41.411Z,11.10
2019-04-30T02:44:12.077Z,10.20
2019-04-30T02:46:44.910Z,10.53
2019-04-30T02:49:15.593Z,11.03
2019-04-30T02:51:49.731Z,10.40
2019-04-30T02:54:24.164Z,9.23
2019-04-30T02:57:02.398Z,11.17
2019-04-30T02:59:32.258Z,9.00
2019-04-30T03:02:01.882Z,10.70
2019-04-30T03:04:31.497Z,11.03
2019-04-30T03:07:01.129Z,9.50
2019-04-30T03:09:31.543Z,9.90
2019-04-30T03:12:01.160Z,9.27
2019-04-30T03:14:30.782Z,8.97
2019-04-30T03:17:20.970Z,10.03
2019-04-30T03:20:10.716Z,10.77
2019-04-30T03:22:41.749Z,11.30
2019-04-30T03:25:11.506Z,10.83
2019-04-30T03:27:42.592Z,11.53
2019-04-30T03:30:12.852Z,10.40
2019-04-30T03:32:43.469Z,10.03
2019-04-30T03:35:13.705Z,10.97
2019-04-30T03:37:43.356Z,9.83
2019-04-30T03:40:13.451Z,10.57
2019-04-30T03:42:43.108Z,11.67
2019-04-30T03:45:13.177Z,12.23
2019-04-30T03:47:43.283Z,13.07
2019-04-30T03:50:13.110Z,11.43
2019-04-30T03:52:42.845Z,14.10
2019-04-30T03:55:12.554Z,13.27
2019-04-30T03:57:53.876Z,14.53
2019-04-30T04:00:35.674Z,13.40
2019-04-30T04:03:05.306Z,12.37
2019-04-30T04:05:43.920Z,14.23
2019-04-30T04:08:29.333Z,15.37
2019-04-30T04:11:10.005Z,14.73
2019-04-30T04:13:40.053Z,16.83
2019-04-30T04:16:09.908Z,16.37
2019-04-30T04:18:40.326Z,15.53
2019-04-30T04:21:16.336Z,16.50
2019-04-30T04:23:41.497Z,13.47
2019-04-30T04:26:11.222Z,17.10
2019-04-30T04:28:43.411Z,15.93
2019-04-30T04:31:12.377Z,17.07
2019-04-30T04:33:42.025Z,16.73
2019-04-30T04:36:11.630Z,15.90
2019-04-30T04:38:41.295Z,16.60
2019-04-30T04:41:10.983Z,14.73
2019-04-30T04:43:40.621Z,15.20
2019-04-30T04:46:10.356Z,14.63
2019-04-30T04:48:39.979Z,14.67
2019-04-30T04:51:26.733Z,15.57
2019-04-30T04:53:41.122Z,15.07
2019-04-30T04:56:11.735Z,15.57
2019-04-30T04:58:41.383Z,16.30
2019-04-30T05:01:11.904Z,15.63
2019-04-30T05:03:42.741Z,17.13
2019-04-30T05:06:12.547Z,16.43
2019-04-30T05:08:42.307Z,16.53
2019-04-30T05:11:11.958Z,17.13
2019-04-30T05:13:41.595Z,17.87
2019-04-30T05:16:11.251Z,17.17
2019-04-30T05:18:40.878Z,16.67
2019-04-30T05:21:10.558Z,16.30
2019-04-30T05:23:42.689Z,19.37
2019-04-30T05:26:11.693Z,17.10
2019-04-30T05:28:41.507Z,17.70
2019-04-30T05:31:11.121Z,18.40
2019-04-30T05:33:40.731Z,15.73
2019-04-30T05:36:10.362Z,18.00
2019-04-30T05:38:39.978Z,17.43
2019-04-30T05:41:09.650Z,18.87
2019-04-30T05:43:39.274Z,14.97
2019-04-30T05:46:11.017Z,18.07
2019-04-30T05:48:40.226Z,19.10
2019-04-30T05:51:09.928Z,17.47
2019-04-30T05:53:39.551Z,18.43
2019-04-30T05:56:09.611Z,21.27
2019-04-30T05:58:39.697Z,19.47
2019-04-30T06:01:09.961Z,18.37
2019-04-30T06:03:39.721Z,18.87
2019-04-30T06:06:11.539Z,18.20
2019-04-30T06:08:50.566Z,19.10
2019-04-30T06:11:39.409Z,21.03
2019-04-30T06:14:48.705Z,19.97
2019-04-30T06:17:11.166Z,21.50
2019-04-30T06:19:40.882Z,22.63
2019-04-30T06:22:11.162Z,23.87
2019-04-30T06:24:41.250Z,21.77
2019-04-30T06:27:11.234Z,22.90
2019-04-30T06:29:41.146Z,21.93
2019-04-30T06:32:11.351Z,25.57
2019-04-30T06:34:42.156Z,25.07
2019-04-30T06:37:12.507Z,26.77
2019-04-30T06:39:42.153Z,24.30
2019-04-30T06:42:13.014Z,24.97
2019-04-30T06:44:43.916Z,27.33
2019-04-30T06:47:14.162Z,27.90
2019-04-30T06:49:43.973Z,26.37
2019-04-30T06:52:20.671Z,25.67
2019-04-30T06:54:45.930Z,26.83
2019-04-30T06:57:15.632Z,26.17
2019-04-30T06:59:45.262Z,21.57
2019-04-30T07:02:14.886Z,21.60
2019-04-30T07:04:44.565Z,21.37
2019-04-30T07:07:19.284Z,22.30
2019-04-30T07:10:12.085Z,22.23
2019-04-30T07:12:41.749Z,23.13
2019-04-30T07:15:13.642Z,25.00
2019-04-30T07:17:43.069Z,22.50
2019-04-30T07:20:12.789Z,24.20
2019-04-30T07:22:49.617Z,22.97
2019-04-30T07:25:14.041Z,22.73
2019-04-30T07:27:43.801Z,24.60
2019-04-30T07:30:13.699Z,24.17
2019-04-30T07:32:43.419Z,23.20
2019-04-30T07:35:13.418Z,20.77
2019-04-30T07:37:43.147Z,25.03
2019-04-30T07:40:13.130Z,23.93
2019-04-30T07:42:45.082Z,23.80
2019-04-30T07:45:14.364Z,24.03
2019-04-30T07:47:44.086Z,22.80
2019-04-30T07:50:14.539Z,21.63
2019-04-30T07:53:01.094Z,22.23
2019-04-30T07:55:15.917Z,18.87
2019-04-30T07:57:45.542Z,19.77
2019-04-30T08:00:15.274Z,18.23
2019-04-30T08:02:53.098Z,17.83
2019-04-30T08:05:31.877Z,16.53
2019-04-30T08:08:16.313Z,18.33
2019-04-30T08:10:32.929Z,17.07
2019-04-30T08:13:10.230Z,18.67
2019-04-30T08:15:34.112Z,19.47
2019-04-30T08:18:05.922Z,17.87
2019-04-30T08:20:35.582Z,20.20
2019-04-30T08:23:15.709Z,19.77
2019-04-30T08:25:38.981Z,17.57
2019-04-30T08:28:09.095Z,18.33
2019-04-30T08:30:39.220Z,17.13
2019-04-30T08:33:10.144Z,15.47
2019-04-30T08:35:39.919Z,15.10
2019-04-30T08:38:10.836Z,15.17
2019-04-30T08:40:53.391Z,16.60
2019-04-30T08:43:11.976Z,17.70
2019-04-30T08:45:41.933Z,17.90
2019-04-30T08:48:11.540Z,15.67
2019-04-30T08:50:41.150Z,14.23
2019-04-30T08:53:11.422Z,12.67
2019-04-30T08:55:41.568Z,11.30
2019-04-30T08:58:14.917Z,10.83
2019-04-30T09:00:42.596Z,13.20
2019-04-30T09:03:12.353Z,13.00
2019-04-30T09:06:03.877Z,10.73
2019-04-30T09:08:34.148Z,12.23
2019-04-30T09:11:03.847Z,11.07
2019-04-30T09:13:33.503Z,10.97
2019-04-30T09:16:03.488Z,9.83
2019-04-30T09:18:34.719Z,10.50
2019-04-30T09:21:06.467Z,10.23
2019-04-30T09:23:47.259Z,10.07
2019-04-30T09:26:08.691Z,9.13
2019-04-30T09:28:41.365Z,10.50
2019-04-30T09:31:11.073Z,11.17
2019-04-30T09:33:40.686Z,10.60
2019-04-30T09:36:10.335Z,10.90
2019-04-30T09:38:39.976Z,12.03
2019-04-30T09:41:09.797Z,12.73
2019-04-30T09:43:40.528Z,10.47
2019-04-30T09:46:19.151Z,11.10
2019-04-30T09:48:41.730Z,10.37
2019-04-30T09:51:12.031Z,10.10
2019-04-30T09:53:42.346Z,10.13
2019-04-30T09:56:11.948Z,9.87
2019-04-30T09:58:41.629Z,9.07
2019-04-30T10:01:12.547Z,10.87
2019-04-30T10:03:42.478Z,12.13
2019-04-30T10:06:14.173Z,10.93
2019-04-30T10:08:48.453Z,12.83
2019-04-30T10:11:40.160Z,9.70
2019-04-30T10:14:09.774Z,8.93
2019-04-30T10:16:55.250Z,8.93
2019-04-30T10:19:24.866Z,9.67
2019-04-30T10:21:54.525Z,8.20
2019-04-30T10:24:24.133Z,8.77
2019-04-30T10:26:53.870Z,7.60
2019-04-30T10:29:25.669Z,7.30
2019-04-30T10:31:55.290Z,7.73
2019-04-30T10:34:24.921Z,7.70
2019-04-30T10:36:54.526Z,6.37
2019-04-30T10:39:24.782Z,6.57
2019-04-30T10:41:54.389Z,6.57
2019-04-30T10:44:24.100Z,6.67
2019-04-30T10:46:53.722Z,6.47
2019-04-30T10:49:23.445Z,6.37
2019-04-30T10:51:53.137Z,6.83
2019-04-30T10:54:26.249Z,6.27
2019-04-30T10:56:54.141Z,6.87
2019-04-30T10:59:23.959Z,5.27
2019-04-30T11:01:53.635Z,7.23
2019-04-30T11:04:23.334Z,6.50
2019-04-30T11:06:52.952Z,6.47
2019-04-30T11:09:22.871Z,6.17
2019-04-30T11:11:52.600Z,5.43
2019-04-30T11:14:22.244Z,5.57
2019-04-30T11:16:52.323Z,6.00
2019-04-30T11:19:22.407Z,7.50
2019-04-30T11:21:52.428Z,6.37
2019-04-30T11:24:35.925Z,6.53
2019-04-30T11:26:55.329Z,7.13
2019-04-30T11:29:25.517Z,6.63
2019-04-30T11:32:00.674Z,7.10
2019-04-30T11:34:30.788Z,6.63
2019-04-30T11:37:00.417Z,7.40
2019-04-30T11:39:31.178Z,7.00
2019-04-30T11:42:00.994Z,7.87
2019-04-30T11:44:31.642Z,9.63
2019-04-30T11:47:24.336Z,10.00
2019-04-30T11:49:54.545Z,11.30
2019-04-30T11:52:25.530Z,9.20
2019-04-30T11:54:55.385Z,8.73
2019-04-30T11:57:25.806Z,7.20
2019-04-30T11:59:55.422Z,8.97
2019-04-30T12:02:29.638Z,8.13
2019-04-30T12:04:59.270Z,8.27
2019-04-30T12:07:44.242Z,6.70
2019-04-30T12:10:34.459Z,6.53
2019-04-30T12:13:05.818Z,8.03
2019-04-30T12:15:35.722Z,6.33
2019-04-30T12:18:05.448Z,7.40
2019-04-30T12:20:35.082Z,6.93
2019-04-30T12:23:04.898Z,6.80
2019-04-30T12:25:34.571Z,6.10
2019-04-30T12:28:04.256Z,5.57
2019-04-30T12:30:33.866Z,6.40
2019-04-30T12:33:03.641Z,6.27
2019-04-30T12:35:33.265Z,7.07
2019-04-30T12:38:02.990Z,6.13
2019-04-30T12:40:32.643Z,6.90
2019-04-30T12:43:02.374Z,5.83
2019-04-30T12:45:32.025Z,6.03
2019-04-30T12:48:06.904Z,6.73
2019-04-30T12:50:45.310Z,6.97
2019-04-30T12:53:20.341Z,5.60
2019-04-30T12:56:09.003Z,6.57
2019-04-30T12:58:39.696Z,6.53
2019-04-30T13:01:09.637Z,6.53
2019-04-30T13:03:39.900Z,7.37
2019-04-30T13:06:11.370Z,7.40
2019-04-30T13:08:41.946Z,6.80
2019-04-30T13:11:13.311Z,8.00
2019-04-30T13:13:44.153Z,7.20
2019-04-30T13:16:14.239Z,7.57
2019-04-30T13:18:43.860Z,8.33
2019-04-30T13:21:13.730Z,8.00
2019-04-30T13:23:43.390Z,7.97
2019-04-30T13:26:13.102Z,7.70
2019-04-30T13:28:51.620Z,7.40
2019-04-30T13:31:21.260Z,7.30
2019-04-30T13:33:58.079Z,7.83
2019-04-30T13:36:27.038Z,9.17
2019-04-30T13:39:02.494Z,8.10
2019-04-30T13:41:54.380Z,9.17
2019-04-30T13:44:30.385Z,8.23
2019-04-30T13:47:00.154Z,8.13
2019-04-30T13:49:30.269Z,8.83
2019-04-30T13:52:00.013Z,9.10
2019-04-30T13:54:29.665Z,9.33
2019-04-30T13:56:59.373Z,8.03
2019-04-30T13:59:29.141Z,8.63
2019-04-30T14:01:58.899Z,7.13
2019-04-30T14:04:44.490Z,10.00
2019-04-30T14:07:24.431Z,8.67
2019-04-30T14:09:54.143Z,10.50
2019-04-30T14:12:23.876Z,9.93
2019-04-30T14:14:53.613Z,9.13
2019-04-30T14:17:23.403Z,8.33
2019-04-30T14:19:53.102Z,8.17
2019-04-30T14:22:22.727Z,8.47
2019-04-30T14:24:52.405Z,8.73
2019-04-30T14:27:22.213Z,9.27
2019-04-30T14:29:51.881Z,7.83
2019-04-30T14:32:21.577Z,8.20
2019-04-30T14:34:51.342Z,7.53
2019-04-30T14:37:21.075Z,8.30
2019-04-30T14:39:52.278Z,9.83
2019-04-30T14:42:23.058Z,9.30
2019-04-30T14:45:02.054Z,8.50
2019-04-30T14:47:41.702Z,8.20
2019-04-30T14:50:18.613Z,9.97
2019-04-30T14:53:01.627Z,10.33
2019-04-30T14:55:53.246Z,8.50
2019-04-30T14:58:43.314Z,9.67
2019-04-30T15:01:19.452Z,10.83
2019-04-30T15:03:49.546Z,11.07
2019-04-30T15:06:19.430Z,7.53
2019-04-30T15:08:50.158Z,9.10
2019-04-30T15:11:19.858Z,8.50
2019-04-30T15:13:49.527Z,9.73
2019-04-30T15:16:19.169Z,9.30
2019-04-30T15:18:48.855Z,8.50
2019-04-30T15:21:18.471Z,7.70
2019-04-30T15:24:07.128Z,9.27
2019-04-30T15:26:39.352Z,8.17
2019-04-30T15:29:14.377Z,7.90
2019-04-30T15:31:40.394Z,9.20
2019-04-30T15:34:12.749Z,7.70
2019-04-30T15:36:42.516Z,9.17
2019-04-30T15:39:34.995Z,7.30
2019-04-30T15:42:05.117Z,7.63
2019-04-30T15:44:39.953Z,8.80
2019-04-30T15:47:08.970Z,7.27
2019-04-30T15:49:38.470Z,7.03
2019-04-30T15:52:11.086Z,7.83
2019-04-30T15:54:40.554Z,8.83
2019-04-30T15:57:11.230Z,9.40
2019-04-30T15:59:41.969Z,8.40
2019-04-30T16:02:30.009Z,9.07
2019-04-30T16:05:14.080Z,11.87
2019-04-30T16:07:51.209Z,11.20
2019-04-30T16:10:40.594Z,11.07
2019-04-30T16:13:15.864Z,11.07
2019-04-30T16:15:45.561Z,12.93
2019-04-30T16:18:15.455Z,12.03
2019-04-30T16:20:45.074Z,11.93
2019-04-30T16:23:14.856Z,12.03
2019-04-30T16:25:44.479Z,11.40
2019-04-30T16:28:14.256Z,12.77
2019-04-30T16:30:44.189Z,9.63
2019-04-30T16:33:14.081Z,10.47
2019-04-30T16:35:43.709Z,9.00
2019-04-30T16:38:13.383Z,9.47
2019-04-30T16:40:43.022Z,8.97
2019-04-30T16:43:12.638Z,8.90
2019-04-30T16:45:42.282Z,10.37
2019-04-30T16:48:19.693Z,9.53
2019-04-30T16:50:51.233Z,10.20
2019-04-30T16:53:20.881Z,10.60
2019-04-30T16:55:50.722Z,10.03
2019-04-30T16:58:20.404Z,11.83
2019-04-30T17:00:50.047Z,10.87
2019-04-30T17:03:28.322Z,12.03
2019-04-30T17:06:04.163Z,9.40
2019-04-30T17:08:39.175Z,9.57
2019-04-30T17:11:38.636Z,11.17
2019-04-30T17:14:11.635Z,10.63
2019-04-30T17:16:41.452Z,9.60
2019-04-30T17:19:11.129Z,9.33
2019-04-30T17:21:40.752Z,10.03
2019-04-30T17:24:10.414Z,10.47
2019-04-30T17:26:40.015Z,9.30
2019-04-30T17:29:09.676Z,7.30
2019-04-30T17:31:39.380Z,7.67
2019-04-30T17:34:09.078Z,7.07
2019-04-30T17:36:39.725Z,6.60
2019-04-30T17:39:12.934Z,6.37
2019-04-30T17:41:42.581Z,6.03
2019-04-30T17:44:12.264Z,6.53
2019-04-30T17:46:41.876Z,6.70
2019-04-30T17:49:11.585Z,6.37
2019-04-30T17:51:41.237Z,6.63
2019-04-30T17:54:14.026Z,7.13
2019-04-30T17:56:44.974Z,6.83
2019-04-30T17:59:15.190Z,7.30
2019-04-30T18:01:59.676Z,6.37
2019-04-30T18:04:30.218Z,5.60
2019-04-30T18:07:00.065Z,5.67
2019-04-30T18:09:30.293Z,6.17
2019-04-30T18:12:00.021Z,6.97
2019-04-30T18:14:29.610Z,5.90
2019-04-30T18:17:01.076Z,5.63
2019-04-30T18:19:38.648Z,5.90
2019-04-30T18:22:13.018Z,5.43
2019-04-30T18:25:02.705Z,5.83
2019-04-30T18:27:45.291Z,5.87
2019-04-30T18:30:11.754Z,5.47
2019-04-30T18:32:41.832Z,6.30
2019-04-30T18:35:11.576Z,5.93
2019-04-30T18:37:41.245Z,7.30
2019-04-30T18:40:11.192Z,6.80
2019-04-30T18:42:40.938Z,6.20
2019-04-30T18:45:11.468Z,6.33
2019-04-30T18:47:50.841Z,6.13
2019-04-30T18:50:28.190Z,6.53
2019-04-30T18:53:08.674Z,5.77
2019-04-30T18:55:40.125Z,5.20
2019-04-30T18:58:12.884Z,6.80
2019-04-30T19:00:45.254Z,6.33
2019-04-30T19:03:26.870Z,7.73
2019-04-30T19:06:06.037Z,6.87
2019-04-30T19:08:50.627Z,7.50
2019-04-30T19:11:33.811Z,7.03
2019-04-30T19:14:39.557Z,6.50
2019-04-30T19:17:51.889Z,6.93
2019-04-30T19:20:33.834Z,7.40
2019-04-30T19:23:11.633Z,10.03
2019-04-30T19:25:52.500Z,9.27
2019-04-30T19:28:31.614Z,9.50
2019-04-30T19:31:11.784Z,9.40
2019-04-30T19:33:49.484Z,8.90
2019-04-30T19:36:34.956Z,9.93
2019-04-30T19:39:09.480Z,8.90
2019-04-30T19:41:48.884Z,11.90
2019-04-30T19:44:26.049Z,13.80
2019-04-30T19:46:59.974Z,16.03
2019-04-30T19:49:40.767Z,16.60
2019-04-30T19:52:19.263Z,14.10
2019-04-30T19:54:51.790Z,17.73
2019-04-30T19:57:28.628Z,18.90
2019-04-30T20:00:04.722Z,19.13
2019-04-30T20:02:35.466Z,19.03
2019-04-30T20:05:05.968Z,19.80
2019-04-30T20:07:35.616Z,19.93
2019-04-30T20:10:05.886Z,18.97
2019-04-30T20:12:35.499Z,18.07
2019-04-30T20:15:16.454Z,20.43
2019-04-30T20:17:38.595Z,20.07
2019-04-30T20:20:09.073Z,23.30
2019-04-30T20:22:38.995Z,22.60
2019-04-30T20:25:09.254Z,21.10
2019-04-30T20:27:39.667Z,22.23
2019-04-30T20:30:09.844Z,23.17
2019-04-30T20:32:39.556Z,26.67
2019-04-30T20:35:09.858Z,27.73
2019-04-30T20:37:59.670Z,26.70
2019-04-30T20:40:42.999Z,29.83
2019-04-30T20:43:02.574Z,23.87
2019-04-30T20:45:32.211Z,27.57
2019-04-30T20:48:01.911Z,25.37
2019-04-30T20:50:31.530Z,25.57
2019-04-30T20:53:01.130Z,24.40
2019-04-30T20:55:30.738Z,27.50
2019-04-30T20:58:00.413Z,26.33
2019-04-30T21:00:30.066Z,26.60
2019-04-30T21:02:59.911Z,25.57
2019-04-30T21:05:29.608Z,26.20
2019-04-30T21:07:59.405Z,27.57
2019-04-30T21:10:29.712Z,25.47
2019-04-30T21:12:59.517Z,27.20
2019-04-30T21:15:29.677Z,27.00
2019-04-30T21:17:59.590Z,28.87
2019-04-30T21:20:30.293Z,25.87
2019-04-30T21:22:59.916Z,22.33
2019-04-30T21:25:29.540Z,26.67
2019-04-30T21:28:00.005Z,24.73
2019-04-30T21:30:29.792Z,25.90
2019-04-30T21:33:09.219Z,22.47
2019-04-30T21:35:44.689Z,24.63
2019-04-30T21:38:14.370Z,24.07
2019-04-30T21:40:44.010Z,25.57
2019-04-30T21:43:13.629Z,24.23
2019-04-30T21:45:43.342Z,24.87
2019-04-30T21:48:12.950Z,22.90
2019-04-30T21:50:42.636Z,24.67
2019-04-30T21:53:12.333Z,22.13
2019-04-30T21:55:42.086Z,23.87
2019-04-30T21:58:11.710Z,23.10
2019-04-30T22:00:59.894Z,22.97
2019-04-30T22:03:32.821Z,22.87
2019-04-30T22:06:02.560Z,22.30
2019-04-30T22:08:32.246Z,20.13
2019-04-30T22:11:01.943Z,21.83
2019-04-30T22:13:31.549Z,20.17
2019-04-30T22:16:01.237Z,21.97
2019-04-30T22:18:30.865Z,20.47
2019-04-30T22:21:00.491Z,21.13
2019-04-30T22:23:30.089Z,24.10
2019-04-30T22:25:59.722Z,22.27
2019-04-30T22:28:29.347Z,22.90
2019-04-30T22:30:58.978Z,23.60
2019-04-30T22:33:29.196Z,23.37
2019-04-30T22:36:04.677Z,26.83
2019-04-30T22:38:39.054Z,24.33
2019-04-30T22:41:08.953Z,24.47
2019-04-30T22:43:39.625Z,22.87
2019-04-30T22:46:13.196Z,21.13
2019-04-30T22:48:42.807Z,22.93
2019-04-30T22:51:13.029Z,22.10
2019-04-30T22:53:43.725Z,25.77
2019-04-30T22:56:13.397Z,25.60
2019-04-30T22:58:43.004Z,23.27
2019-04-30T23:01:25.652Z,24.50
2019-04-30T23:03:57.965Z,23.37
2019-04-30T23:06:27.566Z,23.67
2019-04-30T23:08:57.177Z,24.43
2019-04-30T23:11:26.806Z,22.17
2019-04-30T23:13:56.430Z,22.80
2019-04-30T23:16:26.047Z,24.43
2019-04-30T23:18:55.717Z,22.83
2019-04-30T23:21:25.520Z,23.10
2019-04-30T23:23:55.136Z,21.93
2019-04-30T23:26:24.745Z,19.77
2019-04-30T23:28:54.361Z,21.00
2019-04-30T23:31:23.970Z,24.17
2019-04-30T23:33:53.589Z,24.27
2019-04-30T23:36:23.294Z,23.70
2019-04-30T23:38:52.994Z,25.00
2019-04-30T23:41:22.954Z,27.63
2019-04-30T23:43:54.949Z,28.77
2019-04-30T23:46:23.869Z,24.50
2019-04-30T23:48:54.775Z,24.43
2019-04-30T23:51:24.473Z,25.80
2019-04-30T23:53:54.087Z,18.30
2019-04-30T23:56:23.758Z,23.43
2019-04-30T23:58:53.363Z,24.27
